createdAt,value
2017-07-18T00:00:52.658Z,90.40
2017-07-18T00:03:20.199Z,90.50
2017-07-18T00:05:48.493Z,90.90
2017-07-18T00:08:16.036Z,90.90
2017-07-18T00:10:43.560Z,91.00
2017-07-18T00:13:11.874Z,91.30
2017-07-18T00:15:39.403Z,91.30
2017-07-18T00:18:06.957Z,91.50
2017-07-18T00:20:35.272Z,91.40
2017-07-18T00:23:02.803Z,91.40
2017-07-18T00:25:30.341Z,91.30
2017-07-18T00:27:57.864Z,91.10
2017-07-18T00:30:25.403Z,90.90
2017-07-18T00:32:52.975Z,90.70
2017-07-18T00:35:20.519Z,90.80
2017-07-18T00:37:48.042Z,90.80
2017-07-18T00:40:15.581Z,91.10
2017-07-18T00:42:43.106Z,91.20
2017-07-18T00:45:10.657Z,90.90
2017-07-18T00:47:38.941Z,90.90
2017-07-18T00:50:06.496Z,90.90
2017-07-18T00:52:34.021Z,91.00
2017-07-18T00:55:01.544Z,91.00
2017-07-18T00:57:29.846Z,90.60
2017-07-18T00:59:57.370Z,90.60
2017-07-18T01:02:24.916Z,90.40
2017-07-18T01:04:52.438Z,90.20
2017-07-18T01:07:19.971Z,90.40
2017-07-18T01:09:47.500Z,90.50
2017-07-18T01:12:15.042Z,90.10
2017-07-18T01:14:43.336Z,90.10
2017-07-18T01:17:10.886Z,90.00
2017-07-18T01:19:38.407Z,90.30
2017-07-18T01:22:05.935Z,90.20
2017-07-18T01:24:34.248Z,90.70
2017-07-18T01:27:01.770Z,90.60
2017-07-18T01:29:29.304Z,90.60
2017-07-18T01:31:57.583Z,91.10
2017-07-18T01:34:25.129Z,91.00
2017-07-18T01:36:52.659Z,90.90
2017-07-18T01:39:20.208Z,90.90
2017-07-18T01:41:48.492Z,91.20
2017-07-18T01:44:16.008Z,91.20
2017-07-18T01:46:44.321Z,91.30
2017-07-18T01:49:11.838Z,91.30
2017-07-18T01:51:39.379Z,91.30
2017-07-18T01:54:06.903Z,90.60
2017-07-18T01:56:34.442Z,90.70
2017-07-18T01:59:01.979Z,90.60
2017-07-18T02:01:29.524Z,90.40
2017-07-18T02:03:57.042Z,90.50
2017-07-18T02:06:24.585Z,90.90
2017-07-18T02:08:52.108Z,91.10
2017-07-18T02:11:19.640Z,91.20
2017-07-18T02:13:47.183Z,90.90
2017-07-18T02:16:14.708Z,90.90
2017-07-18T02:18:43.022Z,91.30
2017-07-18T02:21:11.333Z,90.90
2017-07-18T02:23:39.641Z,91.10
2017-07-18T02:26:07.159Z,91.10
2017-07-18T02:28:34.704Z,91.50
2017-07-18T02:31:02.228Z,91.60
2017-07-18T02:33:29.792Z,91.50
2017-07-18T02:35:57.314Z,91.50
2017-07-18T02:38:24.835Z,91.60
2017-07-18T02:40:52.379Z,91.50
2017-07-18T02:43:19.904Z,91.70
2017-07-18T02:45:48.216Z,91.60
2017-07-18T02:48:15.744Z,91.30
2017-07-18T02:50:44.042Z,91.30
2017-07-18T02:53:12.334Z,91.70
2017-07-18T02:55:39.871Z,91.70
2017-07-18T02:58:07.382Z,91.80
2017-07-18T03:00:34.924Z,91.90
2017-07-18T03:03:02.447Z,92.00
2017-07-18T03:05:30.007Z,91.70
2017-07-18T03:07:57.531Z,91.60
2017-07-18T03:10:25.047Z,91.70
2017-07-18T03:12:53.351Z,92.10
2017-07-18T03:15:20.870Z,92.10
2017-07-18T03:17:49.180Z,91.80
2017-07-18T03:20:17.467Z,91.50
2017-07-18T03:22:45.007Z,91.50
2017-07-18T03:25:13.295Z,91.90
2017-07-18T03:27:40.856Z,91.50
2017-07-18T03:30:08.379Z,90.90
2017-07-18T03:32:36.684Z,91.30
2017-07-18T03:35:04.208Z,91.30
2017-07-18T03:37:31.722Z,91.30
2017-07-18T03:39:59.259Z,91.40
2017-07-18T03:42:27.548Z,91.90
2017-07-18T03:44:55.087Z,91.90
2017-07-18T03:47:23.366Z,91.50
2017-07-18T03:49:50.904Z,91.50
2017-07-18T03:52:18.444Z,91.40
2017-07-18T03:54:45.984Z,91.60
2017-07-18T03:57:14.270Z,92.00
2017-07-18T03:59:41.822Z,92.00
2017-07-18T04:02:10.108Z,92.10
2017-07-18T04:04:37.626Z,92.10
2017-07-18T04:07:05.170Z,91.70
2017-07-18T04:09:32.683Z,91.80
2017-07-18T04:12:00.218Z,92.10
2017-07-18T04:14:27.744Z,91.90
2017-07-18T04:16:55.279Z,91.20
2017-07-18T04:19:22.801Z,91.00
2017-07-18T04:21:50.339Z,90.90
2017-07-18T04:24:17.851Z,90.70
2017-07-18T04:26:45.391Z,90.80
2017-07-18T04:29:12.905Z,90.50
2017-07-18T04:31:40.450Z,90.30
2017-07-18T04:34:07.968Z,90.10
2017-07-18T04:36:36.250Z,90.40
2017-07-18T04:39:04.551Z,90.40
2017-07-18T04:41:32.082Z,90.40
2017-07-18T04:43:59.614Z,90.00
2017-07-18T04:46:27.139Z,88.90
2017-07-18T04:48:54.679Z,88.60
2017-07-18T04:51:22.204Z,87.70
2017-07-18T04:53:49.744Z,86.60
2017-07-18T04:56:17.272Z,85.20
2017-07-18T04:58:44.832Z,85.00
2017-07-18T05:01:13.115Z,82.80
2017-07-18T05:03:40.638Z,82.80
2017-07-18T05:06:08.174Z,80.70
2017-07-18T05:08:35.689Z,79.20
2017-07-18T05:11:03.999Z,73.70
2017-07-18T05:13:31.518Z,73.70
2017-07-18T05:15:59.063Z,73.00
2017-07-18T05:18:27.352Z,72.00
2017-07-18T05:20:54.894Z,72.00
2017-07-18T05:23:22.414Z,71.60
2017-07-18T05:25:49.938Z,71.50
2017-07-18T05:28:17.476Z,72.60
2017-07-18T05:30:45.760Z,73.80
2017-07-18T05:33:13.303Z,73.80
2017-07-18T05:35:40.823Z,74.20
2017-07-18T05:38:09.132Z,73.30
2017-07-18T05:40:36.649Z,73.10
2017-07-18T05:43:04.941Z,73.30
2017-07-18T05:45:32.480Z,74.10
2017-07-18T05:47:59.994Z,70.40
2017-07-18T05:50:27.525Z,66.60
2017-07-18T05:52:55.065Z,64.20
2017-07-18T05:55:22.609Z,62.70
2017-07-18T05:57:50.123Z,61.10
2017-07-18T06:00:17.667Z,59.20
2017-07-18T06:02:45.186Z,61.80
2017-07-18T06:05:13.509Z,62.80
2017-07-18T06:07:41.787Z,62.50
2017-07-18T06:10:09.314Z,62.30
2017-07-18T06:12:37.623Z,59.30
2017-07-18T06:15:05.142Z,59.20
2017-07-18T06:17:33.445Z,59.10
2017-07-18T06:20:00.963Z,59.40
2017-07-18T06:22:28.505Z,59.30
2017-07-18T06:24:56.020Z,60.00
2017-07-18T06:27:23.563Z,61.20
2017-07-18T06:29:51.855Z,60.80
2017-07-18T06:32:19.397Z,60.70
2017-07-18T06:34:46.918Z,60.30
2017-07-18T06:37:14.457Z,61.00
2017-07-18T06:39:41.987Z,60.10
2017-07-18T06:42:09.504Z,59.30
2017-07-18T06:44:37.040Z,57.90
2017-07-18T06:47:04.564Z,56.60
2017-07-18T06:49:32.098Z,57.40
2017-07-18T06:51:59.606Z,57.70
2017-07-18T06:54:27.149Z,58.10
2017-07-18T06:56:54.676Z,59.60
2017-07-18T06:59:22.213Z,59.50
2017-07-18T07:01:50.555Z,59.20
2017-07-18T07:04:18.108Z,58.50
2017-07-18T07:06:45.626Z,57.60
2017-07-18T07:09:13.147Z,57.80
2017-07-18T07:11:40.683Z,56.60
2017-07-18T07:14:08.212Z,56.40
2017-07-18T07:16:35.762Z,55.90
2017-07-18T07:19:03.274Z,56.20
2017-07-18T07:21:30.835Z,55.50
2017-07-18T07:23:58.365Z,54.70
2017-07-18T07:26:25.904Z,56.10
2017-07-18T07:28:53.422Z,54.50
2017-07-18T07:31:20.963Z,53.20
2017-07-18T07:33:48.482Z,52.30
2017-07-18T07:36:16.009Z,51.50
2017-07-18T07:38:43.551Z,50.40
2017-07-18T07:41:11.059Z,51.00
2017-07-18T07:43:38.602Z,51.20
2017-07-18T07:46:06.117Z,52.20
2017-07-18T07:48:33.657Z,51.00
2017-07-18T07:51:01.175Z,50.00
2017-07-18T07:53:29.473Z,48.70
2017-07-18T07:55:56.996Z,48.60
2017-07-18T07:58:24.515Z,49.00
2017-07-18T08:00:52.054Z,49.20
2017-07-18T08:03:19.570Z,49.70
2017-07-18T08:05:47.118Z,49.50
2017-07-18T08:08:15.404Z,51.10
2017-07-18T08:10:42.948Z,51.00
2017-07-18T08:13:11.234Z,48.70
2017-07-18T08:15:38.785Z,48.70
2017-07-18T08:18:06.303Z,48.80
2017-07-18T08:20:33.853Z,49.90
2017-07-18T08:23:01.380Z,48.90
2017-07-18T08:25:28.930Z,49.40
2017-07-18T08:27:56.459Z,49.90
2017-07-18T08:30:23.978Z,50.90
2017-07-18T08:32:51.515Z,51.70
2017-07-18T08:35:19.034Z,52.30
2017-07-18T08:37:46.572Z,51.30
2017-07-18T08:40:14.094Z,50.50
2017-07-18T08:42:41.629Z,49.50
2017-07-18T08:45:09.910Z,47.50
2017-07-18T08:47:37.441Z,47.40
2017-07-18T08:50:04.950Z,48.80
2017-07-18T08:52:32.491Z,47.50
2017-07-18T08:55:00.007Z,45.80
2017-07-18T08:57:27.547Z,44.20
2017-07-18T08:59:55.834Z,47.40
2017-07-18T09:02:23.349Z,47.40
2017-07-18T09:04:51.651Z,46.80
2017-07-18T09:07:19.172Z,46.60
2017-07-18T09:09:46.717Z,46.90
2017-07-18T09:12:14.239Z,46.20
2017-07-18T09:14:42.544Z,45.70
2017-07-18T09:17:10.060Z,45.60
2017-07-18T09:19:37.599Z,44.20
2017-07-18T09:22:05.122Z,43.70
2017-07-18T09:24:32.670Z,45.30
2017-07-18T09:27:00.199Z,44.90
2017-07-18T09:29:27.727Z,44.80
2017-07-18T09:31:55.267Z,43.80
2017-07-18T09:34:23.551Z,42.90
2017-07-18T09:36:51.873Z,43.00
2017-07-18T09:39:19.391Z,43.00
2017-07-18T09:41:47.689Z,42.60
2017-07-18T09:44:15.212Z,42.60
2017-07-18T09:46:43.521Z,42.80
2017-07-18T09:49:11.045Z,42.80
2017-07-18T09:51:38.582Z,43.60
2017-07-18T09:54:06.109Z,41.80
2017-07-18T09:56:33.679Z,42.20
2017-07-18T09:59:01.221Z,43.80
2017-07-18T10:01:28.738Z,45.50
2017-07-18T10:03:56.581Z,44.80
2017-07-18T10:06:24.866Z,42.50
2017-07-18T10:08:52.404Z,42.50
2017-07-18T10:11:19.918Z,41.50
2017-07-18T10:13:47.463Z,41.20
2017-07-18T10:16:14.981Z,41.30
2017-07-18T10:18:43.271Z,41.60
2017-07-18T10:21:11.574Z,41.30
2017-07-18T10:23:39.096Z,41.20
2017-07-18T10:26:06.631Z,41.20
2017-07-18T10:28:34.147Z,39.80
2017-07-18T10:31:02.456Z,36.60
2017-07-18T10:33:29.970Z,36.50
2017-07-18T10:35:57.510Z,38.40
2017-07-18T10:38:25.027Z,37.80
2017-07-18T10:40:52.561Z,38.50
2017-07-18T10:43:20.079Z,37.70
2017-07-18T10:45:47.617Z,37.30
2017-07-18T10:48:15.133Z,36.00
2017-07-18T10:50:42.671Z,37.00
2017-07-18T10:53:10.210Z,39.50
2017-07-18T10:55:38.494Z,40.30
2017-07-18T10:58:06.047Z,40.20
2017-07-18T11:00:33.564Z,39.60
2017-07-18T11:03:01.876Z,42.90
2017-07-18T11:05:29.393Z,42.50
2017-07-18T11:07:56.935Z,44.60
2017-07-18T11:10:24.450Z,44.40
2017-07-18T11:12:51.995Z,43.10
2017-07-18T11:15:19.510Z,41.10
2017-07-18T11:17:47.027Z,39.00
2017-07-18T11:20:14.562Z,37.80
2017-07-18T11:22:42.086Z,38.40
2017-07-18T11:25:09.623Z,39.70
2017-07-18T11:27:37.149Z,40.50
2017-07-18T11:30:04.690Z,41.50
2017-07-18T11:32:32.216Z,43.00
2017-07-18T11:34:59.754Z,43.60
2017-07-18T11:37:27.270Z,43.80
2017-07-18T11:39:54.834Z,42.60
2017-07-18T11:42:22.358Z,42.80
2017-07-18T11:44:49.883Z,41.40
2017-07-18T11:47:17.421Z,39.50
2017-07-18T11:49:44.938Z,37.80
2017-07-18T11:52:13.237Z,34.40
2017-07-18T11:54:40.751Z,34.30
2017-07-18T11:57:08.293Z,37.10
2017-07-18T11:59:35.811Z,35.80
2017-07-18T12:02:03.345Z,34.50
2017-07-18T12:04:30.862Z,34.60
2017-07-18T12:06:58.393Z,33.60
2017-07-18T12:09:25.906Z,33.90
2017-07-18T12:11:53.438Z,33.90
2017-07-18T12:14:20.960Z,32.90
2017-07-18T12:16:48.502Z,32.20
2017-07-18T12:19:16.018Z,32.30
2017-07-18T12:21:43.539Z,31.90
2017-07-18T12:24:11.087Z,33.30
2017-07-18T12:26:38.611Z,33.60
2017-07-18T12:29:06.159Z,34.50
2017-07-18T12:31:33.677Z,34.30
2017-07-18T12:34:01.217Z,32.30
2017-07-18T12:36:29.501Z,31.20
2017-07-18T12:38:57.043Z,31.10
2017-07-18T12:41:24.598Z,31.30
2017-07-18T12:43:52.145Z,32.80
2017-07-18T12:46:19.664Z,33.50
2017-07-18T12:48:47.192Z,34.50
2017-07-18T12:51:14.769Z,34.80
2017-07-18T12:53:42.312Z,34.60
2017-07-18T12:56:09.885Z,35.30
2017-07-18T12:58:37.398Z,37.20
2017-07-18T13:01:05.703Z,36.20
2017-07-18T13:03:33.219Z,37.30
2017-07-18T13:06:00.763Z,37.30
2017-07-18T13:08:28.282Z,38.00
2017-07-18T13:10:55.816Z,38.20
2017-07-18T13:13:24.099Z,35.90
2017-07-18T13:15:51.642Z,35.90
2017-07-18T13:18:19.162Z,35.30
2017-07-18T13:20:46.682Z,34.30
2017-07-18T13:23:14.224Z,33.90
2017-07-18T13:25:41.742Z,34.20
2017-07-18T13:28:09.299Z,35.30
2017-07-18T13:30:36.831Z,36.30
2017-07-18T13:33:04.367Z,38.10
2017-07-18T13:35:31.895Z,39.40
2017-07-18T13:37:59.437Z,38.00
2017-07-18T13:40:26.960Z,36.90
2017-07-18T13:42:54.509Z,35.10
2017-07-18T13:45:22.031Z,33.40
2017-07-18T13:47:50.316Z,33.90
2017-07-18T13:50:17.863Z,33.80
2017-07-18T13:52:45.387Z,33.50
2017-07-18T13:55:12.923Z,35.10
2017-07-18T13:57:40.444Z,35.20
2017-07-18T14:00:07.984Z,36.30
2017-07-18T14:02:35.506Z,38.70
2017-07-18T14:05:03.056Z,38.30
2017-07-18T14:07:30.580Z,38.70
2017-07-18T14:09:58.870Z,37.10
2017-07-18T14:12:26.413Z,37.10
2017-07-18T14:14:53.936Z,36.60
2017-07-18T14:17:22.250Z,37.40
2017-07-18T14:19:49.770Z,37.10
2017-07-18T14:22:18.081Z,37.80
2017-07-18T14:24:45.600Z,37.80
2017-07-18T14:27:13.146Z,39.80
2017-07-18T14:29:40.662Z,37.70
2017-07-18T14:32:08.181Z,38.80
2017-07-18T14:34:35.713Z,38.10
2017-07-18T14:37:03.234Z,38.10
2017-07-18T14:39:30.778Z,38.30
2017-07-18T14:41:58.313Z,40.10
2017-07-18T14:44:25.851Z,40.70
2017-07-18T14:46:53.370Z,40.80
2017-07-18T14:49:20.905Z,40.80
2017-07-18T14:51:48.418Z,38.80
2017-07-18T14:54:16.731Z,37.90
2017-07-18T14:56:44.262Z,37.90
2017-07-18T14:59:11.780Z,37.30
2017-07-18T15:01:39.313Z,36.50
2017-07-18T15:04:06.833Z,37.00
2017-07-18T15:06:34.366Z,37.80
2017-07-18T15:09:01.883Z,37.80
2017-07-18T15:11:29.418Z,38.70
2017-07-18T15:13:56.938Z,38.70
2017-07-18T15:16:24.470Z,39.10
2017-07-18T15:18:51.989Z,36.70
2017-07-18T15:21:19.550Z,37.80
2017-07-18T15:23:47.074Z,37.70
2017-07-18T15:26:14.597Z,38.40
2017-07-18T15:28:42.130Z,40.00
2017-07-18T15:31:09.657Z,39.80
2017-07-18T15:33:37.191Z,39.20
2017-07-18T15:36:04.706Z,40.50
2017-07-18T15:38:32.239Z,39.60
2017-07-18T15:40:59.757Z,39.00
2017-07-18T15:43:27.302Z,39.00
2017-07-18T15:45:54.822Z,39.70
2017-07-18T15:48:22.383Z,39.00
2017-07-18T15:50:49.898Z,39.10
2017-07-18T15:53:17.414Z,39.00
2017-07-18T15:55:44.954Z,40.00
2017-07-18T15:58:12.471Z,40.00
2017-07-18T16:00:40.005Z,39.70
2017-07-18T16:03:07.517Z,40.70
2017-07-18T16:05:35.058Z,41.90
2017-07-18T16:08:02.573Z,41.40
2017-07-18T16:10:30.114Z,43.10
2017-07-18T16:12:57.634Z,43.60
2017-07-18T16:15:25.177Z,42.30
2017-07-18T16:17:52.691Z,41.90
2017-07-18T16:20:20.206Z,42.30
2017-07-18T16:22:48.518Z,42.80
2017-07-18T16:25:16.046Z,42.70
2017-07-18T16:27:43.584Z,43.50
2017-07-18T16:30:11.112Z,43.90
2017-07-18T16:32:38.651Z,45.00
2017-07-18T16:35:06.166Z,45.00
2017-07-18T16:37:33.719Z,44.20
2017-07-18T16:40:01.235Z,44.70
2017-07-18T16:42:28.755Z,45.20
2017-07-18T16:44:56.302Z,45.10
2017-07-18T16:47:23.824Z,45.50
2017-07-18T16:49:51.361Z,44.20
2017-07-18T16:52:19.641Z,45.80
2017-07-18T16:54:47.946Z,46.00
2017-07-18T16:57:15.476Z,46.00
2017-07-18T16:59:43.786Z,46.00
2017-07-18T17:02:11.307Z,46.00
2017-07-18T17:04:38.825Z,46.00
2017-07-18T17:07:07.131Z,46.50
2017-07-18T17:09:34.647Z,46.50
2017-07-18T17:12:02.179Z,46.70
2017-07-18T17:14:29.712Z,47.30
2017-07-18T17:16:57.252Z,46.20
2017-07-18T17:19:24.777Z,45.70
2017-07-18T17:21:52.320Z,45.80
2017-07-18T17:24:19.842Z,45.60
2017-07-18T17:26:47.385Z,46.40
2017-07-18T17:29:14.908Z,47.20
2017-07-18T17:31:42.430Z,46.70
2017-07-18T17:34:09.972Z,47.30
2017-07-18T17:36:37.494Z,48.00
2017-07-18T17:39:05.036Z,48.80
2017-07-18T17:41:32.551Z,49.10
2017-07-18T17:44:00.086Z,49.70
2017-07-18T17:46:27.620Z,50.30
2017-07-18T17:48:55.922Z,51.50
2017-07-18T17:51:23.441Z,51.50
2017-07-18T17:53:50.986Z,51.80
2017-07-18T17:56:18.512Z,53.00
2017-07-18T17:58:46.061Z,53.20
2017-07-18T18:01:14.374Z,53.30
2017-07-18T18:03:41.889Z,52.50
2017-07-18T18:06:09.422Z,53.30
2017-07-18T18:08:36.939Z,52.90
2017-07-18T18:11:04.477Z,54.10
2017-07-18T18:13:32.003Z,55.10
2017-07-18T18:15:59.547Z,56.30
2017-07-18T18:18:27.079Z,56.90
2017-07-18T18:20:54.626Z,57.40
2017-07-18T18:23:22.905Z,58.20
2017-07-18T18:25:50.419Z,58.20
2017-07-18T18:28:18.722Z,58.80
2017-07-18T18:30:46.244Z,58.80
2017-07-18T18:33:14.547Z,59.90
2017-07-18T18:35:42.070Z,60.40
2017-07-18T18:38:09.602Z,61.60
2017-07-18T18:40:37.895Z,63.50
2017-07-18T18:43:05.450Z,63.40
2017-07-18T18:45:32.970Z,64.00
2017-07-18T18:48:00.491Z,64.30
2017-07-18T18:50:28.031Z,64.70
2017-07-18T18:52:56.322Z,65.10
2017-07-18T18:55:23.862Z,65.10
2017-07-18T18:57:52.147Z,67.80
2017-07-18T19:00:20.450Z,67.50
2017-07-18T19:02:47.969Z,67.30
2017-07-18T19:05:15.509Z,67.90
2017-07-18T19:07:43.026Z,68.50
2017-07-18T19:10:10.582Z,68.90
2017-07-18T19:12:38.110Z,69.40
2017-07-18T19:15:05.629Z,69.70
2017-07-18T19:17:33.165Z,69.70
2017-07-18T19:20:00.687Z,69.40
2017-07-18T19:22:28.230Z,69.20
2017-07-18T19:24:55.756Z,69.40
2017-07-18T19:27:23.294Z,69.60
2017-07-18T19:29:50.819Z,69.60
2017-07-18T19:32:19.123Z,69.60
2017-07-18T19:34:46.651Z,69.60
2017-07-18T19:37:15.000Z,70.40
2017-07-18T19:39:42.522Z,70.40
2017-07-18T19:42:10.042Z,71.10
2017-07-18T19:44:38.345Z,71.60
2017-07-18T19:47:05.875Z,71.60
2017-07-18T19:49:33.420Z,71.80
2017-07-18T19:52:00.938Z,72.30
2017-07-18T19:54:28.478Z,72.60
2017-07-18T19:56:56.003Z,72.60
2017-07-18T19:59:24.307Z,72.80
2017-07-18T20:01:51.841Z,72.60
2017-07-18T20:04:19.385Z,72.60
2017-07-18T20:06:47.675Z,73.10
2017-07-18T20:09:15.960Z,72.30
2017-07-18T20:11:43.503Z,72.20
2017-07-18T20:14:11.790Z,72.70
2017-07-18T20:16:39.329Z,72.60
2017-07-18T20:19:06.844Z,73.20
2017-07-18T20:21:34.382Z,73.40
2017-07-18T20:24:01.897Z,73.40
2017-07-18T20:26:29.444Z,73.30
2017-07-18T20:28:56.958Z,73.10
2017-07-18T20:31:24.918Z,73.00
2017-07-18T20:33:52.474Z,72.70
2017-07-18T20:36:20.754Z,71.60
2017-07-18T20:38:49.063Z,71.60
2017-07-18T20:41:16.580Z,71.50
2017-07-18T20:43:44.110Z,71.90
2017-07-18T20:46:11.623Z,73.00
2017-07-18T20:48:39.930Z,75.40
2017-07-18T20:51:07.463Z,75.60
2017-07-18T20:53:34.998Z,75.60
2017-07-18T20:56:02.519Z,75.70
2017-07-18T20:58:30.073Z,75.30
2017-07-18T21:00:57.593Z,75.10
2017-07-18T21:03:25.119Z,74.70
2017-07-18T21:05:52.658Z,75.00
2017-07-18T21:08:20.178Z,74.00
2017-07-18T21:10:47.713Z,74.70
2017-07-18T21:13:15.240Z,75.50
2017-07-18T21:15:42.781Z,76.70
2017-07-18T21:18:11.070Z,75.50
2017-07-18T21:20:39.367Z,75.60
2017-07-18T21:23:06.887Z,75.60
2017-07-18T21:25:34.436Z,76.40
2017-07-18T21:28:01.954Z,77.10
2017-07-18T21:30:30.237Z,77.70
2017-07-18T21:32:58.535Z,78.00
2017-07-18T21:35:26.054Z,78.00
2017-07-18T21:37:53.598Z,76.90
2017-07-18T21:40:21.122Z,76.40
2017-07-18T21:42:48.667Z,76.40
2017-07-18T21:45:16.192Z,76.70
2017-07-18T21:47:44.509Z,79.40
2017-07-18T21:50:12.039Z,79.40
2017-07-18T21:52:40.329Z,79.00
2017-07-18T21:55:07.893Z,79.00
2017-07-18T21:57:35.428Z,78.60
2017-07-18T22:00:02.970Z,78.70
2017-07-18T22:02:30.495Z,78.60
2017-07-18T22:04:58.047Z,79.30
2017-07-18T22:07:25.569Z,79.40
2017-07-18T22:09:53.125Z,78.80
2017-07-18T22:12:20.671Z,79.20
2017-07-18T22:14:48.187Z,79.40
2017-07-18T22:17:16.499Z,80.40
2017-07-18T22:19:44.027Z,80.40
2017-07-18T22:22:11.575Z,79.70
2017-07-18T22:24:39.102Z,81.00
2017-07-18T22:27:07.429Z,80.80
2017-07-18T22:29:34.945Z,80.50
2017-07-18T22:32:02.481Z,80.90
2017-07-18T22:34:30.772Z,82.50
2017-07-18T22:36:58.325Z,82.50
2017-07-18T22:39:26.610Z,81.30
2017-07-18T22:41:54.142Z,81.10
2017-07-18T22:44:21.678Z,81.30
2017-07-18T22:46:49.201Z,81.20
2017-07-18T22:49:16.747Z,82.20
2017-07-18T22:51:44.271Z,82.80
2017-07-18T22:54:11.811Z,84.00
2017-07-18T22:56:39.330Z,84.70
2017-07-18T22:59:07.642Z,84.10
2017-07-18T23:01:35.162Z,84.10
2017-07-18T23:04:02.686Z,83.70
2017-07-18T23:06:30.225Z,81.60
2017-07-18T23:08:58.502Z,82.00
2017-07-18T23:11:26.039Z,82.00
2017-07-18T23:13:53.563Z,82.30
2017-07-18T23:16:21.098Z,82.00
2017-07-18T23:18:48.611Z,82.10
2017-07-18T23:21:16.174Z,82.70
2017-07-18T23:23:43.691Z,82.80
2017-07-18T23:26:11.229Z,81.40
2017-07-18T23:28:38.748Z,81.90
2017-07-18T23:31:06.271Z,81.90
2017-07-18T23:33:33.818Z,80.30
2017-07-18T23:36:01.335Z,80.00
2017-07-18T23:38:28.883Z,80.80
2017-07-18T23:40:56.399Z,80.10
2017-07-18T23:43:23.944Z,80.20
2017-07-18T23:45:51.466Z,80.00
2017-07-18T23:48:19.012Z,80.70
2017-07-18T23:50:46.535Z,81.10
2017-07-18T23:53:14.054Z,79.70
2017-07-18T23:55:41.593Z,79.50
2017-07-18T23:58:09.122Z,80.30
